Terminal Aerodrome Forecast
Issued by NWS

Home | Current Version | Previous Version | Graphics & Text | Print | Product List | Glossary On
Versions: 1 2 3 4 5 6 7 8 9 10 11 12 13 14 15 16
000
FTUS43 KABR 240540
TAFATY
TAF
KATY 240540Z 2406/2506 16011KT P6SM VCSH BKN150 WS020/20040KT
     FM241000 18012KT P6SM BKN150
     FM241500 19014G20KT P6SM BKN200
     FM242100 19015G23KT P6SM VCTS SCT060CB SCT200
     FM250200 19009KT P6SM SCT250=

USA.gov is the U.S. government's official web portal to all federal, state and local government web resources and services.